Aviation Digital Data Service (ADDS)

Output produced by METARs form (0937 UTC 23 July 2019)
found at http://www.aviationweather.gov/metar/data/
 
METAR text: OITT 230930Z 14016KT 9999 SCT030 FEW032CB 36/08 Q1010 A2983
Conditions at: OITT (TABRIZ(IRAN-AB/C, IR) observed 0930 UTC 23 July 2019
Temperature: 36.0°C (97°F)
Dewpoint: 8.0°C (46°F) [RH = 18%]
Pressure (altimeter): 29.82 inches Hg (1010.0 mb)
Winds: from the SE (140 degrees) at 18 MPH (16 knots; 8.2 m/s)
Visibility: 6 or more miles (10+ km)
Ceiling: at least 12,000 feet AGL
Clouds: scattered clouds at 3000 feet AGL
few clouds at 3200 feet AGL
Weather: no significant weather observed at this time

METAR text: OITT 230900Z 14018KT 9999 SCT030 FEW032CB 36/08 Q1010 A2983 NOSIG
Conditions at: OITT (TABRIZ(IRAN-AB/C, IR) observed 0900 UTC 23 July 2019
Temperature: 36.0°C (97°F)
Dewpoint: 8.0°C (46°F) [RH = 18%]
Pressure (altimeter): 29.82 inches Hg (1010.0 mb)
Winds: from the SE (140 degrees) at 21 MPH (18 knots; 9.3 m/s)
Visibility: 6 or more miles (10+ km)
Ceiling: at least 12,000 feet AGL
Clouds: scattered clouds at 3000 feet AGL
few clouds at 3200 feet AGL
Weather: no significant weather observed at this time

METAR text: OITT 230830Z 08019KT 9999 FEW030 FEW032CB SCT080 35/08 Q1010 A2984
Conditions at: OITT (TABRIZ(IRAN-AB/C, IR) observed 0830 UTC 23 July 2019
Temperature: 35.0°C (95°F)
Dewpoint: 8.0°C (46°F) [RH = 19%]
Pressure (altimeter): 29.82 inches Hg (1010.0 mb)
Winds: from the E (80 degrees) at 22 MPH (19 knots; 9.8 m/s)
Visibility: 6 or more miles (10+ km)
Ceiling: at least 12,000 feet AGL
Clouds: few clouds at 3000 feet AGL
few clouds at 3200 feet AGL
scattered clouds at 8000 feet AGL
Weather: no significant weather observed at this time

METAR text: OITT 230800Z 08019KT 9999 FEW030 FEW032CB SCT080 35/08 Q1010 A2984 NOSIG
Conditions at: OITT (TABRIZ(IRAN-AB/C, IR) observed 0800 UTC 23 July 2019
Temperature: 35.0°C (95°F)
Dewpoint: 8.0°C (46°F) [RH = 19%]
Pressure (altimeter): 29.82 inches Hg (1010.0 mb)
Winds: from the E (80 degrees) at 22 MPH (19 knots; 9.8 m/s)
Visibility: 6 or more miles (10+ km)
Ceiling: at least 12,000 feet AGL
Clouds: few clouds at 3000 feet AGL
few clouds at 3200 feet AGL
scattered clouds at 8000 feet AGL
Weather: no significant weather observed at this time

METAR text: OITT 230730Z 11014KT 9999 SCT030 FEW032CB SCT080 32/09 Q1011 A2986
Conditions at: OITT (TABRIZ(IRAN-AB/C, IR) observed 0730 UTC 23 July 2019
Temperature: 32.0°C (90°F)
Dewpoint: 9.0°C (48°F) [RH = 24%]
Pressure (altimeter): 29.85 inches Hg (1011.0 mb)
Winds: from the ESE (110 degrees) at 16 MPH (14 knots; 7.2 m/s)
Visibility: 6 or more miles (10+ km)
Ceiling: at least 12,000 feet AGL
Clouds: scattered clouds at 3000 feet AGL
few clouds at 3200 feet AGL
scattered clouds at 8000 feet AGL
Weather: no significant weather observed at this time

METAR text: OITT 230700Z 11010KT 9999 SCT030 FEW032CB SCT080 32/09 Q1011 A2986 NOSIG
Conditions at: OITT (TABRIZ(IRAN-AB/C, IR) observed 0700 UTC 23 July 2019
Temperature: 32.0°C (90°F)
Dewpoint: 9.0°C (48°F) [RH = 24%]
Pressure (altimeter): 29.85 inches Hg (1011.0 mb)
Winds: from the ESE (110 degrees) at 12 MPH (10 knots; 5.1 m/s)
Visibility: 6 or more miles (10+ km)
Ceiling: at least 12,000 feet AGL
Clouds: scattered clouds at 3000 feet AGL
few clouds at 3200 feet AGL
scattered clouds at 8000 feet AGL
Weather: no significant weather observed at this time

METAR text: OITT 230630Z 13016KT 9999 SCT030 FEW032CB BKN080 30/09 Q1012 A2989
Conditions at: OITT (TABRIZ(IRAN-AB/C, IR) observed 0630 UTC 23 July 2019
Temperature: 30.0°C (86°F)
Dewpoint: 9.0°C (48°F) [RH = 27%]
Pressure (altimeter): 29.88 inches Hg (1012.0 mb)
Winds: from the SE (130 degrees) at 18 MPH (16 knots; 8.2 m/s)
Visibility: 6 or more miles (10+ km)
Ceiling: 8000 feet AGL
Clouds: scattered clouds at 3000 feet AGL
few clouds at 3200 feet AGL
broken clouds at 8000 feet AGL
Weather: no significant weather observed at this time

METAR text: OITT 230600Z 13016KT 9999 SCT030 FEW032CB BKN080 30/09 Q1012 A2989 NOSIG
Conditions at: OITT (TABRIZ(IRAN-AB/C, IR) observed 0600 UTC 23 July 2019
Temperature: 30.0°C (86°F)
Dewpoint: 9.0°C (48°F) [RH = 27%]
Pressure (altimeter): 29.88 inches Hg (1012.0 mb)
Winds: from the SE (130 degrees) at 18 MPH (16 knots; 8.2 m/s)
Visibility: 6 or more miles (10+ km)
Ceiling: 8000 feet AGL
Clouds: scattered clouds at 3000 feet AGL
few clouds at 3200 feet AGL
broken clouds at 8000 feet AGL
Weather: no significant weather observed at this time

METAR text: OITT 230530Z 16018KT 030V260 9999 SCT030 FEW032CB BKN080 29/09 Q1011 A2987
Conditions at: OITT (TABRIZ(IRAN-AB/C, IR) observed 0530 UTC 23 July 2019
Temperature: 29.0°C (84°F)
Dewpoint: 9.0°C (48°F) [RH = 29%]
Pressure (altimeter): 29.85 inches Hg (1011.0 mb)
Winds: from the SSE (160 degrees) at 21 MPH (18 knots; 9.3 m/s)
Visibility: 6 or more miles (10+ km)
Ceiling: 8000 feet AGL
Clouds: scattered clouds at 3000 feet AGL
few clouds at 3200 feet AGL
broken clouds at 8000 feet AGL
Weather: no significant weather observed at this time

METAR text: OITT 230500Z 16018KT 030V260 9999 SCT030 FEW032CB BKN080 29/09 Q1011 A2987 NOSIG
Conditions at: OITT (TABRIZ(IRAN-AB/C, IR) observed 0500 UTC 23 July 2019
Temperature: 29.0°C (84°F)
Dewpoint: 9.0°C (48°F) [RH = 29%]
Pressure (altimeter): 29.85 inches Hg (1011.0 mb)
Winds: from the SSE (160 degrees) at 21 MPH (18 knots; 9.3 m/s)
Visibility: 6 or more miles (10+ km)
Ceiling: 8000 feet AGL
Clouds: scattered clouds at 3000 feet AGL
few clouds at 3200 feet AGL
broken clouds at 8000 feet AGL
Weather: no significant weather observed at this time

METAR text: OITT 230430Z 06016KT 9999 SCT030 FEW032CB BKN080 29/09 Q1012 A2989
Conditions at: OITT (TABRIZ(IRAN-AB/C, IR) observed 0430 UTC 23 July 2019
Temperature: 29.0°C (84°F)
Dewpoint: 9.0°C (48°F) [RH = 29%]
Pressure (altimeter): 29.88 inches Hg (1012.0 mb)
Winds: from the ENE (60 degrees) at 18 MPH (16 knots; 8.2 m/s)
Visibility: 6 or more miles (10+ km)
Ceiling: 8000 feet AGL
Clouds: scattered clouds at 3000 feet AGL
few clouds at 3200 feet AGL
broken clouds at 8000 feet AGL
Weather: no significant weather observed at this time

METAR text: OITT 230400Z 06016KT 9999 SCT030 FEW032CB BKN080 29/09 Q1012 A2989 NOSIG
Conditions at: OITT (TABRIZ(IRAN-AB/C, IR) observed 0400 UTC 23 July 2019
Temperature: 29.0°C (84°F)
Dewpoint: 9.0°C (48°F) [RH = 29%]
Pressure (altimeter): 29.88 inches Hg (1012.0 mb)
Winds: from the ENE (60 degrees) at 18 MPH (16 knots; 8.2 m/s)
Visibility: 6 or more miles (10+ km)
Ceiling: 8000 feet AGL
Clouds: scattered clouds at 3000 feet AGL
few clouds at 3200 feet AGL
broken clouds at 8000 feet AGL
Weather: no significant weather observed at this time

METAR text: OITT 230330Z 07016KT 9999 FEW040 FEW045CB SCT090 30/09 Q1012 A2989
Conditions at: OITT (TABRIZ(IRAN-AB/C, IR) observed 0330 UTC 23 July 2019
Temperature: 30.0°C (86°F)
Dewpoint: 9.0°C (48°F) [RH = 27%]
Pressure (altimeter): 29.88 inches Hg (1012.0 mb)
Winds: from the ENE (70 degrees) at 18 MPH (16 knots; 8.2 m/s)
Visibility: 6 or more miles (10+ km)
Ceiling: at least 12,000 feet AGL
Clouds: few clouds at 4000 feet AGL
few clouds at 4500 feet AGL
scattered clouds at 9000 feet AGL
Weather: no significant weather observed at this time

METAR text: OITT 230300Z 07016KT 9999 FEW040 FEW045CB SCT090 30/09 Q1012 A2989 NOSIG
Conditions at: OITT (TABRIZ(IRAN-AB/C, IR) observed 0300 UTC 23 July 2019
Temperature: 30.0°C (86°F)
Dewpoint: 9.0°C (48°F) [RH = 27%]
Pressure (altimeter): 29.88 inches Hg (1012.0 mb)
Winds: from the ENE (70 degrees) at 18 MPH (16 knots; 8.2 m/s)
Visibility: 6 or more miles (10+ km)
Ceiling: at least 12,000 feet AGL
Clouds: few clouds at 4000 feet AGL
few clouds at 4500 feet AGL
scattered clouds at 9000 feet AGL
Weather: no significant weather observed at this time

METAR text: OITT 230230Z 05014KT 9999 FEW015 FEW045CB SCT090 30/09 Q1012 A2989
Conditions at: OITT (TABRIZ(IRAN-AB/C, IR) observed 0230 UTC 23 July 2019
Temperature: 30.0°C (86°F)
Dewpoint: 9.0°C (48°F) [RH = 27%]
Pressure (altimeter): 29.88 inches Hg (1012.0 mb)
Winds: from the NE (50 degrees) at 16 MPH (14 knots; 7.2 m/s)
Visibility: 6 or more miles (10+ km)
Ceiling: at least 12,000 feet AGL
Clouds: few clouds at 1500 feet AGL
few clouds at 4500 feet AGL
scattered clouds at 9000 feet AGL
Weather: no significant weather observed at this time

METAR text: OITT 230200Z 01008KT 9999 FEW040 FEW045CB SCT090 29/10 Q1012 A2989
Conditions at: OITT (TABRIZ(IRAN-AB/C, IR) observed 0200 UTC 23 July 2019
Temperature: 29.0°C (84°F)
Dewpoint: 10.0°C (50°F) [RH = 31%]
Pressure (altimeter): 29.88 inches Hg (1012.0 mb)
Winds: from the N (10 degrees) at 9 MPH (8 knots; 4.1 m/s)
Visibility: 6 or more miles (10+ km)
Ceiling: at least 12,000 feet AGL
Clouds: few clouds at 4000 feet AGL
few clouds at 4500 feet AGL
scattered clouds at 9000 feet AGL
Weather: no significant weather observed at this time

METAR text: OITT 230130Z 05014KT 9999 FEW040 FEW045CB SCT090 29/11 Q1011 A2986
Conditions at: OITT (TABRIZ(IRAN-AB/C, IR) observed 0130 UTC 23 July 2019
Temperature: 29.0°C (84°F)
Dewpoint: 11.0°C (52°F) [RH = 33%]
Pressure (altimeter): 29.85 inches Hg (1011.0 mb)
Winds: from the NE (50 degrees) at 16 MPH (14 knots; 7.2 m/s)
Visibility: 6 or more miles (10+ km)
Ceiling: at least 12,000 feet AGL
Clouds: few clouds at 4000 feet AGL
few clouds at 4500 feet AGL
scattered clouds at 9000 feet AGL
Weather: no significant weather observed at this time

METAR text: OITT 230100Z 08019KT 9999 FEW035 SCT170 29/10 Q1010 A2985
Conditions at: OITT (TABRIZ(IRAN-AB/C, IR) observed 0100 UTC 23 July 2019
Temperature: 29.0°C (84°F)
Dewpoint: 10.0°C (50°F) [RH = 31%]
Pressure (altimeter): 29.82 inches Hg (1010.0 mb)
Winds: from the E (80 degrees) at 22 MPH (19 knots; 9.8 m/s)
Visibility: 6 or more miles (10+ km)
Ceiling: at least 12,000 feet AGL
Clouds: few clouds at 3500 feet AGL
scattered clouds at 17000 feet AGL
Weather: no significant weather observed at this time

METAR text: OITT 230030Z 09018KT 9999 FEW035 SCT090 29/11 Q1011 A2986
Conditions at: OITT (TABRIZ(IRAN-AB/C, IR) observed 0030 UTC 23 July 2019
Temperature: 29.0°C (84°F)
Dewpoint: 11.0°C (52°F) [RH = 33%]
Pressure (altimeter): 29.85 inches Hg (1011.0 mb)
Winds: from the E (90 degrees) at 21 MPH (18 knots; 9.3 m/s)
Visibility: 6 or more miles (10+ km)
Ceiling: at least 12,000 feet AGL
Clouds: few clouds at 3500 feet AGL
scattered clouds at 9000 feet AGL
Weather: no significant weather observed at this time

METAR text: OITT 230000Z 08018KT 9999 FEW035 SCT090 29/11 Q1011 A2986
Conditions at: OITT (TABRIZ(IRAN-AB/C, IR) observed 0000 UTC 23 July 2019
Temperature: 29.0°C (84°F)
Dewpoint: 11.0°C (52°F) [RH = 33%]
Pressure (altimeter): 29.85 inches Hg (1011.0 mb)
Winds: from the E (80 degrees) at 21 MPH (18 knots; 9.3 m/s)
Visibility: 6 or more miles (10+ km)
Ceiling: at least 12,000 feet AGL
Clouds: few clouds at 3500 feet AGL
scattered clouds at 9000 feet AGL
Weather: no significant weather observed at this time

METAR text: OITT 222330Z 10016KT 9999 FEW035 SCT090 30/10 Q1011 A2986
Conditions at: OITT (TABRIZ(IRAN-AB/C, IR) observed 2330 UTC 22 July 2019
Temperature: 30.0°C (86°F)
Dewpoint: 10.0°C (50°F) [RH = 29%]
Pressure (altimeter): 29.85 inches Hg (1011.0 mb)
Winds: from the E (100 degrees) at 18 MPH (16 knots; 8.2 m/s)
Visibility: 6 or more miles (10+ km)
Ceiling: at least 12,000 feet AGL
Clouds: few clouds at 3500 feet AGL
scattered clouds at 9000 feet AGL
Weather: no significant weather observed at this time

METAR text: OITT 222300Z 10016KT 9999 FEW035 SCT090 29/11 Q1011 A2986
Conditions at: OITT (TABRIZ(IRAN-AB/C, IR) observed 2300 UTC 22 July 2019
Temperature: 29.0°C (84°F)
Dewpoint: 11.0°C (52°F) [RH = 33%]
Pressure (altimeter): 29.85 inches Hg (1011.0 mb)
Winds: from the E (100 degrees) at 18 MPH (16 knots; 8.2 m/s)
Visibility: 6 or more miles (10+ km)
Ceiling: at least 12,000 feet AGL
Clouds: few clouds at 3500 feet AGL
scattered clouds at 9000 feet AGL
Weather: no significant weather observed at this time

METAR text: OITT 222230Z 09018KT 9999 FEW030 SCT090 30/10 Q1011 A2986
Conditions at: OITT (TABRIZ(IRAN-AB/C, IR) observed 2230 UTC 22 July 2019
Temperature: 30.0°C (86°F)
Dewpoint: 10.0°C (50°F) [RH = 29%]
Pressure (altimeter): 29.85 inches Hg (1011.0 mb)
Winds: from the E (90 degrees) at 21 MPH (18 knots; 9.3 m/s)
Visibility: 6 or more miles (10+ km)
Ceiling: at least 12,000 feet AGL
Clouds: few clouds at 3000 feet AGL
scattered clouds at 9000 feet AGL
Weather: no significant weather observed at this time

METAR text: OITT 222200Z 09021KT 9999 FEW030 SCT090 30/10 Q1011 A2987
Conditions at: OITT (TABRIZ(IRAN-AB/C, IR) observed 2200 UTC 22 July 2019
Temperature: 30.0°C (86°F)
Dewpoint: 10.0°C (50°F) [RH = 29%]
Pressure (altimeter): 29.85 inches Hg (1011.0 mb)
Winds: from the E (90 degrees) at 24 MPH (21 knots; 10.8 m/s)
Visibility: 6 or more miles (10+ km)
Ceiling: at least 12,000 feet AGL
Clouds: few clouds at 3000 feet AGL
scattered clouds at 9000 feet AGL
Weather: no significant weather observed at this time

METAR text: OITT 222130Z 10019KT 9999 FEW030 SCT090 31/09 Q1011 A2987
Conditions at: OITT (TABRIZ(IRAN-AB/C, IR) observed 2130 UTC 22 July 2019
Temperature: 31.0°C (88°F)
Dewpoint: 9.0°C (48°F) [RH = 26%]
Pressure (altimeter): 29.85 inches Hg (1011.0 mb)
Winds: from the E (100 degrees) at 22 MPH (19 knots; 9.8 m/s)
Visibility: 6 or more miles (10+ km)
Ceiling: at least 12,000 feet AGL
Clouds: few clouds at 3000 feet AGL
scattered clouds at 9000 feet AGL
Weather: no significant weather observed at this time

METAR text: OITT 222100Z 09019KT 9999 FEW030 SCT090 32/07 Q1011 A2987
Conditions at: OITT (TABRIZ(IRAN-AB/C, IR) observed 2100 UTC 22 July 2019
Temperature: 32.0°C (90°F)
Dewpoint: 7.0°C (45°F) [RH = 21%]
Pressure (altimeter): 29.85 inches Hg (1011.0 mb)
Winds: from the E (90 degrees) at 22 MPH (19 knots; 9.8 m/s)
Visibility: 6 or more miles (10+ km)
Ceiling: at least 12,000 feet AGL
Clouds: few clouds at 3000 feet AGL
scattered clouds at 9000 feet AGL
Weather: no significant weather observed at this time

METAR text: OITT 222030Z 09016KT 9999 FEW030 SCT180 32/07 Q1011 A2987
Conditions at: OITT (TABRIZ(IRAN-AB/C, IR) observed 2030 UTC 22 July 2019
Temperature: 32.0°C (90°F)
Dewpoint: 7.0°C (45°F) [RH = 21%]
Pressure (altimeter): 29.85 inches Hg (1011.0 mb)
Winds: from the E (90 degrees) at 18 MPH (16 knots; 8.2 m/s)
Visibility: 6 or more miles (10+ km)
Ceiling: at least 12,000 feet AGL
Clouds: few clouds at 3000 feet AGL
scattered clouds at 18000 feet AGL
Weather: no significant weather observed at this time

METAR text: OITT 222000Z 08018KT 9999 FEW030 FEW035CB SCT090 33/07 Q1011 A2988 NOSIG
Conditions at: OITT (TABRIZ(IRAN-AB/C, IR) observed 2000 UTC 22 July 2019
Temperature: 33.0°C (91°F)
Dewpoint: 7.0°C (45°F) [RH = 20%]
Pressure (altimeter): 29.85 inches Hg (1011.0 mb)
Winds: from the E (80 degrees) at 21 MPH (18 knots; 9.3 m/s)
Visibility: 6 or more miles (10+ km)
Ceiling: at least 12,000 feet AGL
Clouds: few clouds at 3000 feet AGL
few clouds at 3500 feet AGL
scattered clouds at 9000 feet AGL
Weather: no significant weather observed at this time

METAR text: OITT 221930Z 09016KT 9999 FEW030 FEW035CB SCT090 33/07 Q1011 A2988
Conditions at: OITT (TABRIZ(IRAN-AB/C, IR) observed 1930 UTC 22 July 2019
Temperature: 33.0°C (91°F)
Dewpoint: 7.0°C (45°F) [RH = 20%]
Pressure (altimeter): 29.85 inches Hg (1011.0 mb)
Winds: from the E (90 degrees) at 18 MPH (16 knots; 8.2 m/s)
Visibility: 6 or more miles (10+ km)
Ceiling: at least 12,000 feet AGL
Clouds: few clouds at 3000 feet AGL
few clouds at 3500 feet AGL
scattered clouds at 9000 feet AGL
Weather: no significant weather observed at this time

METAR text: OITT 221900Z 09021KT 9999 FEW030 FEW035CB SCT090 33/09 Q1011 A2988 NOSIG
Conditions at: OITT (TABRIZ(IRAN-AB/C, IR) observed 1900 UTC 22 July 2019
Temperature: 33.0°C (91°F)
Dewpoint: 9.0°C (48°F) [RH = 23%]
Pressure (altimeter): 29.85 inches Hg (1011.0 mb)
Winds: from the E (90 degrees) at 24 MPH (21 knots; 10.8 m/s)
Visibility: 6 or more miles (10+ km)
Ceiling: at least 12,000 feet AGL
Clouds: few clouds at 3000 feet AGL
few clouds at 3500 feet AGL
scattered clouds at 9000 feet AGL
Weather: no significant weather observed at this time

METAR text: OITT 221830Z 11014KT 9999 FEW030 FEW035CB 33/09 Q1011 A2988
Conditions at: OITT (TABRIZ(IRAN-AB/C, IR) observed 1830 UTC 22 July 2019
Temperature: 33.0°C (91°F)
Dewpoint: 9.0°C (48°F) [RH = 23%]
Pressure (altimeter): 29.85 inches Hg (1011.0 mb)
Winds: from the ESE (110 degrees) at 16 MPH (14 knots; 7.2 m/s)
Visibility: 6 or more miles (10+ km)
Ceiling: at least 12,000 feet AGL
Clouds: few clouds at 3000 feet AGL
few clouds at 3500 feet AGL
Weather: no significant weather observed at this time

METAR text: OITT 221800Z 11012KT 9999 FEW030 FEW035CB 34/07 Q1011 A2988 NOSIG
Conditions at: OITT (TABRIZ(IRAN-AB/C, IR) observed 1800 UTC 22 July 2019
Temperature: 34.0°C (93°F)
Dewpoint: 7.0°C (45°F) [RH = 19%]
Pressure (altimeter): 29.85 inches Hg (1011.0 mb)
Winds: from the ESE (110 degrees) at 14 MPH (12 knots; 6.2 m/s)
Visibility: 6 or more miles (10+ km)
Ceiling: at least 12,000 feet AGL
Clouds: few clouds at 3000 feet AGL
few clouds at 3500 feet AGL
Weather: no significant weather observed at this time

METAR text: OITT 221730Z 09012KT 9999 FEW030 SCT035CB 35/06 Q1011 A2987
Conditions at: OITT (TABRIZ(IRAN-AB/C, IR) observed 1730 UTC 22 July 2019
Temperature: 35.0°C (95°F)
Dewpoint: 6.0°C (43°F) [RH = 17%]
Pressure (altimeter): 29.85 inches Hg (1011.0 mb)
Winds: from the E (90 degrees) at 14 MPH (12 knots; 6.2 m/s)
Visibility: 6 or more miles (10+ km)
Ceiling: at least 12,000 feet AGL
Clouds: few clouds at 3000 feet AGL
scattered clouds at 3500 feet AGL
Weather: no significant weather observed at this time

METAR text: OITT 221700Z 04004KT 9999 FEW030 SCT035CB 34/06 Q1011 A2986 NOSIG
Conditions at: OITT (TABRIZ(IRAN-AB/C, IR) observed 1700 UTC 22 July 2019
Temperature: 34.0°C (93°F)
Dewpoint: 6.0°C (43°F) [RH = 18%]
Pressure (altimeter): 29.85 inches Hg (1011.0 mb)
Winds: from the NE (40 degrees) at 5 MPH (4 knots; 2.1 m/s)
Visibility: 6 or more miles (10+ km)
Ceiling: at least 12,000 feet AGL
Clouds: few clouds at 3000 feet AGL
scattered clouds at 3500 feet AGL
Weather: no significant weather observed at this time

METAR text: OITT 221630Z 06008KT 9999 FEW030 SCT035CB 35/05 Q1011 A2986
Conditions at: OITT (TABRIZ(IRAN-AB/C, IR) observed 1630 UTC 22 July 2019
Temperature: 35.0°C (95°F)
Dewpoint: 5.0°C (41°F) [RH = 16%]
Pressure (altimeter): 29.85 inches Hg (1011.0 mb)
Winds: from the ENE (60 degrees) at 9 MPH (8 knots; 4.1 m/s)
Visibility: 6 or more miles (10+ km)
Ceiling: at least 12,000 feet AGL
Clouds: few clouds at 3000 feet AGL
scattered clouds at 3500 feet AGL
Weather: no significant weather observed at this time

METAR text: OITT 221600Z 07008KT 9999 FEW030 SCT035CB 36/05 Q1011 A2986 NOSIG
Conditions at: OITT (TABRIZ(IRAN-AB/C, IR) observed 1600 UTC 22 July 2019
Temperature: 36.0°C (97°F)
Dewpoint: 5.0°C (41°F) [RH = 15%]
Pressure (altimeter): 29.85 inches Hg (1011.0 mb)
Winds: from the ENE (70 degrees) at 9 MPH (8 knots; 4.1 m/s)
Visibility: 6 or more miles (10+ km)
Ceiling: at least 12,000 feet AGL
Clouds: few clouds at 3000 feet AGL
scattered clouds at 3500 feet AGL
Weather: no significant weather observed at this time

METAR text: OITT 221530Z 10006KT 9999 FEW030 SCT035CB 37/05 Q1011 A2986
Conditions at: OITT (TABRIZ(IRAN-AB/C, IR) observed 1530 UTC 22 July 2019
Temperature: 37.0°C (99°F)
Dewpoint: 5.0°C (41°F) [RH = 14%]
Pressure (altimeter): 29.85 inches Hg (1011.0 mb)
Winds: from the E (100 degrees) at 7 MPH (6 knots; 3.1 m/s)
Visibility: 6 or more miles (10+ km)
Ceiling: at least 12,000 feet AGL
Clouds: few clouds at 3000 feet AGL
scattered clouds at 3500 feet AGL
Weather: no significant weather observed at this time

METAR text: OITT 221500Z 12014KT 9999 VCSH FEW030 SCT035CB 37/06 Q1011 A2986 TEMPO SHRA
Conditions at: OITT (TABRIZ(IRAN-AB/C, IR) observed 1500 UTC 22 July 2019
Temperature: 37.0°C (99°F)
Dewpoint: 6.0°C (43°F) [RH = 15%]
Pressure (altimeter): 29.85 inches Hg (1011.0 mb)
Winds: from the ESE (120 degrees) at 16 MPH (14 knots; 7.2 m/s)
Visibility: 6 or more miles (10+ km)
Ceiling: at least 12,000 feet AGL
Clouds: few clouds at 3000 feet AGL
scattered clouds at 3500 feet AGL
Weather: VCSH  (showers in vicinity)

METAR text: OITT 221430Z 24014KT 210V360 9999 VCSH SCT030TCU SCT035CB 37/06 Q1011 A2986
Conditions at: OITT (TABRIZ(IRAN-AB/C, IR) observed 1430 UTC 22 July 2019
Temperature: 37.0°C (99°F)
Dewpoint: 6.0°C (43°F) [RH = 15%]
Pressure (altimeter): 29.85 inches Hg (1011.0 mb)
Winds: from the WSW (240 degrees) at 16 MPH (14 knots; 7.2 m/s)
Visibility: 6 or more miles (10+ km)
Ceiling: at least 12,000 feet AGL
Clouds: scattered clouds at 3000 feet AGL
scattered clouds at 3500 feet AGL
Weather: VCSH  (showers in vicinity)

METAR text: OITT 221400Z 24014KT 210V360 9999 VCSH SCT030TCU SCT035CB 37/06 Q1011 A2986 TEMPO SHRA
Conditions at: OITT (TABRIZ(IRAN-AB/C, IR) observed 1400 UTC 22 July 2019
Temperature: 37.0°C (99°F)
Dewpoint: 6.0°C (43°F) [RH = 15%]
Pressure (altimeter): 29.85 inches Hg (1011.0 mb)
Winds: from the WSW (240 degrees) at 16 MPH (14 knots; 7.2 m/s)
Visibility: 6 or more miles (10+ km)
Ceiling: at least 12,000 feet AGL
Clouds: scattered clouds at 3000 feet AGL
scattered clouds at 3500 feet AGL
Weather: VCSH  (showers in vicinity)

METAR text: OITT 221330Z 15006KT 9999 VCSH FEW030TCU SCT035CB 39/08 Q1011 A2986
Conditions at: OITT (TABRIZ(IRAN-AB/C, IR) observed 1330 UTC 22 July 2019
Temperature: 39.0°C (102°F)
Dewpoint: 8.0°C (46°F) [RH = 15%]
Pressure (altimeter): 29.85 inches Hg (1011.0 mb)
Winds: from the SSE (150 degrees) at 7 MPH (6 knots; 3.1 m/s)
Visibility: 6 or more miles (10+ km)
Ceiling: at least 12,000 feet AGL
Clouds: few clouds at 3000 feet AGL
scattered clouds at 3500 feet AGL
Weather: VCSH  (showers in vicinity)

METAR text: OITT 221320Z 15006KT 9999 VCSH FEW030TCU SCT035CB 39/08 Q1011 A2986
Conditions at: OITT (TABRIZ(IRAN-AB/C, IR) observed 1320 UTC 22 July 2019
Temperature: 39.0°C (102°F)
Dewpoint: 8.0°C (46°F) [RH = 15%]
Pressure (altimeter): 29.85 inches Hg (1011.0 mb)
Winds: from the SSE (150 degrees) at 7 MPH (6 knots; 3.1 m/s)
Visibility: 6 or more miles (10+ km)
Ceiling: at least 12,000 feet AGL
Clouds: few clouds at 3000 feet AGL
scattered clouds at 3500 feet AGL
Weather: VCSH  (showers in vicinity)

METAR text: OITT 221300Z 13006KT 9999 VCSH FEW030TCU SCT035CB 39/08 Q1011 A2986 TEMPO TSRA
Conditions at: OITT (TABRIZ(IRAN-AB/C, IR) observed 1300 UTC 22 July 2019
Temperature: 39.0°C (102°F)
Dewpoint: 8.0°C (46°F) [RH = 15%]
Pressure (altimeter): 29.85 inches Hg (1011.0 mb)
Winds: from the SE (130 degrees) at 7 MPH (6 knots; 3.1 m/s)
Visibility: 6 or more miles (10+ km)
Ceiling: at least 12,000 feet AGL
Clouds: few clouds at 3000 feet AGL
scattered clouds at 3500 feet AGL
Weather: VCSH  (showers in vicinity)

METAR text: OITT 221230Z 33010KT 9999 FEW030 SCT035CB 40/09 Q1011 A2987
Conditions at: OITT (TABRIZ(IRAN-AB/C, IR) observed 1230 UTC 22 July 2019
Temperature: 40.0°C (104°F)
Dewpoint: 9.0°C (48°F) [RH = 16%]
Pressure (altimeter): 29.85 inches Hg (1011.0 mb)
Winds: from the NNW (330 degrees) at 12 MPH (10 knots; 5.1 m/s)
Visibility: 6 or more miles (10+ km)
Ceiling: at least 12,000 feet AGL
Clouds: few clouds at 3000 feet AGL
scattered clouds at 3500 feet AGL
Weather: no significant weather observed at this time

METAR text: OITT 221200Z 33010KT 9999 FEW030 SCT035CB 40/09 Q1011 A2987 TEMPO SHRA
Conditions at: OITT (TABRIZ(IRAN-AB/C, IR) observed 1200 UTC 22 July 2019
Temperature: 40.0°C (104°F)
Dewpoint: 9.0°C (48°F) [RH = 16%]
Pressure (altimeter): 29.85 inches Hg (1011.0 mb)
Winds: from the NNW (330 degrees) at 12 MPH (10 knots; 5.1 m/s)
Visibility: 6 or more miles (10+ km)
Ceiling: at least 12,000 feet AGL
Clouds: few clouds at 3000 feet AGL
scattered clouds at 3500 feet AGL
Weather: no significant weather observed at this time

METAR text: OITT 221130Z 27004KT 9999 FEW030TCU FEW035CB 39/08 Q1012 A2989
Conditions at: OITT (TABRIZ(IRAN-AB/C, IR) observed 1130 UTC 22 July 2019
Temperature: 39.0°C (102°F)
Dewpoint: 8.0°C (46°F) [RH = 15%]
Pressure (altimeter): 29.88 inches Hg (1012.0 mb)
Winds: from the W (270 degrees) at 5 MPH (4 knots; 2.1 m/s)
Visibility: 6 or more miles (10+ km)
Ceiling: at least 12,000 feet AGL
Clouds: few clouds at 3000 feet AGL
few clouds at 3500 feet AGL
Weather: no significant weather observed at this time

METAR text: OITT 221100Z 27004KT 9999 FEW030TCU FEW035CB 39/08 Q1012 A2989 NOSIG
Conditions at: OITT (TABRIZ(IRAN-AB/C, IR) observed 1100 UTC 22 July 2019
Temperature: 39.0°C (102°F)
Dewpoint: 8.0°C (46°F) [RH = 15%]
Pressure (altimeter): 29.88 inches Hg (1012.0 mb)
Winds: from the W (270 degrees) at 5 MPH (4 knots; 2.1 m/s)
Visibility: 6 or more miles (10+ km)
Ceiling: at least 12,000 feet AGL
Clouds: few clouds at 3000 feet AGL
few clouds at 3500 feet AGL
Weather: no significant weather observed at this time

METAR text: OITT 221030Z 33006KT 9999 FEW035 FEW040CB 39/08 Q1012 A2991
Conditions at: OITT (TABRIZ(IRAN-AB/C, IR) observed 1030 UTC 22 July 2019
Temperature: 39.0°C (102°F)
Dewpoint: 8.0°C (46°F) [RH = 15%]
Pressure (altimeter): 29.88 inches Hg (1012.0 mb)
Winds: from the NNW (330 degrees) at 7 MPH (6 knots; 3.1 m/s)
Visibility: 6 or more miles (10+ km)
Ceiling: at least 12,000 feet AGL
Clouds: few clouds at 3500 feet AGL
few clouds at 4000 feet AGL
Weather: no significant weather observed at this time

METAR text: OITT 221000Z 33006KT 9999 FEW035 FEW040CB 39/08 Q1012 A2991 NOSIG
Conditions at: OITT (TABRIZ(IRAN-AB/C, IR) observed 1000 UTC 22 July 2019
Temperature: 39.0°C (102°F)
Dewpoint: 8.0°C (46°F) [RH = 15%]
Pressure (altimeter): 29.88 inches Hg (1012.0 mb)
Winds: from the NNW (330 degrees) at 7 MPH (6 knots; 3.1 m/s)
Visibility: 6 or more miles (10+ km)
Ceiling: at least 12,000 feet AGL
Clouds: few clouds at 3500 feet AGL
few clouds at 4000 feet AGL
Weather: no significant weather observed at this time

METAR text: OITT 220930Z 31008KT 9999 FEW035 38/09 Q1013 A2991
Conditions at: OITT (TABRIZ(IRAN-AB/C, IR) observed 0930 UTC 22 July 2019
Temperature: 38.0°C (100°F)
Dewpoint: 9.0°C (48°F) [RH = 17%]
Pressure (altimeter): 29.91 inches Hg (1013.0 mb)
Winds: from the NW (310 degrees) at 9 MPH (8 knots; 4.1 m/s)
Visibility: 6 or more miles (10+ km)
Ceiling: at least 12,000 feet AGL
Clouds: few clouds at 3500 feet AGL
Weather: no significant weather observed at this time

METAR text: OITT 220900Z 31008KT 9999 FEW035 38/09 Q1013 A2991 NOSIG
Conditions at: OITT (TABRIZ(IRAN-AB/C, IR) observed 0900 UTC 22 July 2019
Temperature: 38.0°C (100°F)
Dewpoint: 9.0°C (48°F) [RH = 17%]
Pressure (altimeter): 29.91 inches Hg (1013.0 mb)
Winds: from the NW (310 degrees) at 9 MPH (8 knots; 4.1 m/s)
Visibility: 6 or more miles (10+ km)
Ceiling: at least 12,000 feet AGL
Clouds: few clouds at 3500 feet AGL
Weather: no significant weather observed at this time

METAR text: OITT 220830Z 04006KT 9999 FEW035 37/04 Q1013 A2994
Conditions at: OITT (TABRIZ(IRAN-AB/C, IR) observed 0830 UTC 22 July 2019
Temperature: 37.0°C (99°F)
Dewpoint: 4.0°C (39°F) [RH = 13%]
Pressure (altimeter): 29.91 inches Hg (1013.0 mb)
Winds: from the NE (40 degrees) at 7 MPH (6 knots; 3.1 m/s)
Visibility: 6 or more miles (10+ km)
Ceiling: at least 12,000 feet AGL
Clouds: few clouds at 3500 feet AGL
Weather: no significant weather observed at this time

METAR text: OITT 220800Z 04006KT 9999 FEW035 37/04 Q1013 A2994 NOSIG
Conditions at: OITT (TABRIZ(IRAN-AB/C, IR) observed 0800 UTC 22 July 2019
Temperature: 37.0°C (99°F)
Dewpoint: 4.0°C (39°F) [RH = 13%]
Pressure (altimeter): 29.91 inches Hg (1013.0 mb)
Winds: from the NE (40 degrees) at 7 MPH (6 knots; 3.1 m/s)
Visibility: 6 or more miles (10+ km)
Ceiling: at least 12,000 feet AGL
Clouds: few clouds at 3500 feet AGL
Weather: no significant weather observed at this time

METAR text: OITT 220730Z 12006KT 9999 FEW035 36/09 Q1014 A2995
Conditions at: OITT (TABRIZ(IRAN-AB/C, IR) observed 0730 UTC 22 July 2019
Temperature: 36.0°C (97°F)
Dewpoint: 9.0°C (48°F) [RH = 19%]
Pressure (altimeter): 29.94 inches Hg (1014.0 mb)
Winds: from the ESE (120 degrees) at 7 MPH (6 knots; 3.1 m/s)
Visibility: 6 or more miles (10+ km)
Ceiling: at least 12,000 feet AGL
Clouds: few clouds at 3500 feet AGL
Weather: no significant weather observed at this time

METAR text: OITT 220700Z 12006KT 9999 FEW035 36/09 Q1014 A2995 NOSIG
Conditions at: OITT (TABRIZ(IRAN-AB/C, IR) observed 0700 UTC 22 July 2019
Temperature: 36.0°C (97°F)
Dewpoint: 9.0°C (48°F) [RH = 19%]
Pressure (altimeter): 29.94 inches Hg (1014.0 mb)
Winds: from the ESE (120 degrees) at 7 MPH (6 knots; 3.1 m/s)
Visibility: 6 or more miles (10+ km)
Ceiling: at least 12,000 feet AGL
Clouds: few clouds at 3500 feet AGL
Weather: no significant weather observed at this time

METAR text: OITT 220630Z 10008KT 9999 FEW030 33/07 Q1014 A2996
Conditions at: OITT (TABRIZ(IRAN-AB/C, IR) observed 0630 UTC 22 July 2019
Temperature: 33.0°C (91°F)
Dewpoint: 7.0°C (45°F) [RH = 20%]
Pressure (altimeter): 29.94 inches Hg (1014.0 mb)
Winds: from the E (100 degrees) at 9 MPH (8 knots; 4.1 m/s)
Visibility: 6 or more miles (10+ km)
Ceiling: at least 12,000 feet AGL
Clouds: few clouds at 3000 feet AGL
Weather: no significant weather observed at this time

METAR text: OITT 220600Z 10008KT 9999 FEW030 33/07 Q1014 A2996 NOSIG
Conditions at: OITT (TABRIZ(IRAN-AB/C, IR) observed 0600 UTC 22 July 2019
Temperature: 33.0°C (91°F)
Dewpoint: 7.0°C (45°F) [RH = 20%]
Pressure (altimeter): 29.94 inches Hg (1014.0 mb)
Winds: from the E (100 degrees) at 9 MPH (8 knots; 4.1 m/s)
Visibility: 6 or more miles (10+ km)
Ceiling: at least 12,000 feet AGL
Clouds: few clouds at 3000 feet AGL
Weather: no significant weather observed at this time

METAR text: OITT 220530Z 12008KT 360V160 9999 FEW030 BKN090 32/09 Q1014 A2996
Conditions at: OITT (TABRIZ(IRAN-AB/C, IR) observed 0530 UTC 22 July 2019
Temperature: 32.0°C (90°F)
Dewpoint: 9.0°C (48°F) [RH = 24%]
Pressure (altimeter): 29.94 inches Hg (1014.0 mb)
Winds: from the ESE (120 degrees) at 9 MPH (8 knots; 4.1 m/s)
Visibility: 6 or more miles (10+ km)
Ceiling: 9000 feet AGL
Clouds: few clouds at 3000 feet AGL
broken clouds at 9000 feet AGL
Weather: no significant weather observed at this time

METAR text: OITT 220500Z 12008KT 360V160 9999 FEW030 BKN090 32/09 Q1014 A2996 NOSIG
Conditions at: OITT (TABRIZ(IRAN-AB/C, IR) observed 0500 UTC 22 July 2019
Temperature: 32.0°C (90°F)
Dewpoint: 9.0°C (48°F) [RH = 24%]
Pressure (altimeter): 29.94 inches Hg (1014.0 mb)
Winds: from the ESE (120 degrees) at 9 MPH (8 knots; 4.1 m/s)
Visibility: 6 or more miles (10+ km)
Ceiling: 9000 feet AGL
Clouds: few clouds at 3000 feet AGL
broken clouds at 9000 feet AGL
Weather: no significant weather observed at this time

METAR text: OITT 220430Z 11010KT 360V160 9999 FEW040 BKN100 31/09 Q1014 A2997
Conditions at: OITT (TABRIZ(IRAN-AB/C, IR) observed 0430 UTC 22 July 2019
Temperature: 31.0°C (88°F)
Dewpoint: 9.0°C (48°F) [RH = 26%]
Pressure (altimeter): 29.94 inches Hg (1014.0 mb)
Winds: from the ESE (110 degrees) at 12 MPH (10 knots; 5.1 m/s)
Visibility: 6 or more miles (10+ km)
Ceiling: 10000 feet AGL
Clouds: few clouds at 4000 feet AGL
broken clouds at 10000 feet AGL
Weather: no significant weather observed at this time

METAR text: OITT 220400Z 11012KT 360V160 9999 FEW040 BKN100 30/09 Q1014 A2997 NOSIG
Conditions at: OITT (TABRIZ(IRAN-AB/C, IR) observed 0400 UTC 22 July 2019
Temperature: 30.0°C (86°F)
Dewpoint: 9.0°C (48°F) [RH = 27%]
Pressure (altimeter): 29.94 inches Hg (1014.0 mb)
Winds: from the ESE (110 degrees) at 14 MPH (12 knots; 6.2 m/s)
Visibility: 6 or more miles (10+ km)
Ceiling: 10000 feet AGL
Clouds: few clouds at 4000 feet AGL
broken clouds at 10000 feet AGL
Weather: no significant weather observed at this time

METAR text: OITT 220330Z 08008KT 9999 FEW040 BKN100 30/06 Q1014 A2995
Conditions at: OITT (TABRIZ(IRAN-AB/C, IR) observed 0330 UTC 22 July 2019
Temperature: 30.0°C (86°F)
Dewpoint: 6.0°C (43°F) [RH = 22%]
Pressure (altimeter): 29.94 inches Hg (1014.0 mb)
Winds: from the E (80 degrees) at 9 MPH (8 knots; 4.1 m/s)
Visibility: 6 or more miles (10+ km)
Ceiling: 10000 feet AGL
Clouds: few clouds at 4000 feet AGL
broken clouds at 10000 feet AGL
Weather: no significant weather observed at this time

METAR text: OITT 220300Z 09008KT 9999 FEW040 BKN100 29/06 Q1014 A2995 NOSIG
Conditions at: OITT (TABRIZ(IRAN-AB/C, IR) observed 0300 UTC 22 July 2019
Temperature: 29.0°C (84°F)
Dewpoint: 6.0°C (43°F) [RH = 23%]
Pressure (altimeter): 29.94 inches Hg (1014.0 mb)
Winds: from the E (90 degrees) at 9 MPH (8 knots; 4.1 m/s)
Visibility: 6 or more miles (10+ km)
Ceiling: 10000 feet AGL
Clouds: few clouds at 4000 feet AGL
broken clouds at 10000 feet AGL
Weather: no significant weather observed at this time

METAR text: OITT 220230Z 09014KT 9999 SCT040 BKN100 29/06 Q1014 A2994
Conditions at: OITT (TABRIZ(IRAN-AB/C, IR) observed 0230 UTC 22 July 2019
Temperature: 29.0°C (84°F)
Dewpoint: 6.0°C (43°F) [RH = 23%]
Pressure (altimeter): 29.94 inches Hg (1014.0 mb)
Winds: from the E (90 degrees) at 16 MPH (14 knots; 7.2 m/s)
Visibility: 6 or more miles (10+ km)
Ceiling: 10000 feet AGL
Clouds: scattered clouds at 4000 feet AGL
broken clouds at 10000 feet AGL
Weather: no significant weather observed at this time

METAR text: OITT 220200Z 08014KT 9999 SCT040 BKN100 29/07 Q1013 A2994
Conditions at: OITT (TABRIZ(IRAN-AB/C, IR) observed 0200 UTC 22 July 2019
Temperature: 29.0°C (84°F)
Dewpoint: 7.0°C (45°F) [RH = 25%]
Pressure (altimeter): 29.91 inches Hg (1013.0 mb)
Winds: from the E (80 degrees) at 16 MPH (14 knots; 7.2 m/s)
Visibility: 6 or more miles (10+ km)
Ceiling: 10000 feet AGL
Clouds: scattered clouds at 4000 feet AGL
broken clouds at 10000 feet AGL
Weather: no significant weather observed at this time

METAR text: OITT 220130Z 07012KT 9999 FEW040 SCT100 29/08 Q1013 A2995
Conditions at: OITT (TABRIZ(IRAN-AB/C, IR) observed 0130 UTC 22 July 2019
Temperature: 29.0°C (84°F)
Dewpoint: 8.0°C (46°F) [RH = 27%]
Pressure (altimeter): 29.91 inches Hg (1013.0 mb)
Winds: from the ENE (70 degrees) at 14 MPH (12 knots; 6.2 m/s)
Visibility: 6 or more miles (10+ km)
Ceiling: at least 12,000 feet AGL
Clouds: few clouds at 4000 feet AGL
scattered clouds at 10000 feet AGL
Weather: no significant weather observed at this time

METAR text: OITT 220100Z 05008KT 9999 FEW040 SCT100 28/08 Q1014 A2995
Conditions at: OITT (TABRIZ(IRAN-AB/C, IR) observed 0100 UTC 22 July 2019
Temperature: 28.0°C (82°F)
Dewpoint: 8.0°C (46°F) [RH = 28%]
Pressure (altimeter): 29.94 inches Hg (1014.0 mb)
Winds: from the NE (50 degrees) at 9 MPH (8 knots; 4.1 m/s)
Visibility: 6 or more miles (10+ km)
Ceiling: at least 12,000 feet AGL
Clouds: few clouds at 4000 feet AGL
scattered clouds at 10000 feet AGL
Weather: no significant weather observed at this time

METAR text: OITT 220030Z 08008KT 9999 FEW040 SCT100 28/08 Q1014 A2994
Conditions at: OITT (TABRIZ(IRAN-AB/C, IR) observed 0030 UTC 22 July 2019
Temperature: 28.0°C (82°F)
Dewpoint: 8.0°C (46°F) [RH = 28%]
Pressure (altimeter): 29.94 inches Hg (1014.0 mb)
Winds: from the E (80 degrees) at 9 MPH (8 knots; 4.1 m/s)
Visibility: 6 or more miles (10+ km)
Ceiling: at least 12,000 feet AGL
Clouds: few clouds at 4000 feet AGL
scattered clouds at 10000 feet AGL
Weather: no significant weather observed at this time

METAR text: OITT 220000Z 08019KT 9999 FEW040 SCT100 28/08 Q1013 A2994
Conditions at: OITT (TABRIZ(IRAN-AB/C, IR) observed 0000 UTC 22 July 2019
Temperature: 28.0°C (82°F)
Dewpoint: 8.0°C (46°F) [RH = 28%]
Pressure (altimeter): 29.91 inches Hg (1013.0 mb)
Winds: from the E (80 degrees) at 22 MPH (19 knots; 9.8 m/s)
Visibility: 6 or more miles (10+ km)
Ceiling: at least 12,000 feet AGL
Clouds: few clouds at 4000 feet AGL
scattered clouds at 10000 feet AGL
Weather: no significant weather observed at this time

METAR text: OITT 212330Z 09018KT 9999 FEW040 29/09 Q1013 A2994
Conditions at: OITT (TABRIZ(IRAN-AB/C, IR) observed 2330 UTC 21 July 2019
Temperature: 29.0°C (84°F)
Dewpoint: 9.0°C (48°F) [RH = 29%]
Pressure (altimeter): 29.91 inches Hg (1013.0 mb)
Winds: from the E (90 degrees) at 21 MPH (18 knots; 9.3 m/s)
Visibility: 6 or more miles (10+ km)
Ceiling: at least 12,000 feet AGL
Clouds: few clouds at 4000 feet AGL
Weather: no significant weather observed at this time

METAR text: OITT 212300Z 09016KT 9999 FEW040 28/09 Q1013 A2994
Conditions at: OITT (TABRIZ(IRAN-AB/C, IR) observed 2300 UTC 21 July 2019
Temperature: 28.0°C (82°F)
Dewpoint: 9.0°C (48°F) [RH = 30%]
Pressure (altimeter): 29.91 inches Hg (1013.0 mb)
Winds: from the E (90 degrees) at 18 MPH (16 knots; 8.2 m/s)
Visibility: 6 or more miles (10+ km)
Ceiling: at least 12,000 feet AGL
Clouds: few clouds at 4000 feet AGL
Weather: no significant weather observed at this time

METAR text: OITT 212230Z 08018KT 9999 FEW040 28/09 Q1014 A2996
Conditions at: OITT (TABRIZ(IRAN-AB/C, IR) observed 2230 UTC 21 July 2019
Temperature: 28.0°C (82°F)
Dewpoint: 9.0°C (48°F) [RH = 30%]
Pressure (altimeter): 29.94 inches Hg (1014.0 mb)
Winds: from the E (80 degrees) at 21 MPH (18 knots; 9.3 m/s)
Visibility: 6 or more miles (10+ km)
Ceiling: at least 12,000 feet AGL
Clouds: few clouds at 4000 feet AGL
Weather: no significant weather observed at this time

METAR text: OITT 212200Z 07018KT 9999 FEW040 28/10 Q1014 A2997
Conditions at: OITT (TABRIZ(IRAN-AB/C, IR) observed 2200 UTC 21 July 2019
Temperature: 28.0°C (82°F)
Dewpoint: 10.0°C (50°F) [RH = 32%]
Pressure (altimeter): 29.94 inches Hg (1014.0 mb)
Winds: from the ENE (70 degrees) at 21 MPH (18 knots; 9.3 m/s)
Visibility: 6 or more miles (10+ km)
Ceiling: at least 12,000 feet AGL
Clouds: few clouds at 4000 feet AGL
Weather: no significant weather observed at this time

Forecast for: OITT (TABRIZ(IRAN-AB/C, IR)
Text: TAF OITT 230530Z 2306/2412 09016KT 9999 SCT030 FEW032CB BKN080
Forecast period: 0600 UTC 23 July 2019 to 1200 UTC 24 July 2019
Forecast type: FROM: standard forecast or significant change
Winds: from the E (90 degrees) at 18 MPH (16 knots; 8.2 m/s)
Visibility: 6 or more miles 10+ km)
Ceiling: 8000 feet AGL
Clouds: scattered clouds at 3000 feet AGL
few clouds at 3200 feet AGL
broken clouds at 8000 feet AGL
Weather: no significant weather forecast for this period
Text: TEMPO 2309/2315 06020KT 6000 FEW030 SCT032CB BKN090
Forecast period: 0900 to 1500 UTC 23 July 2019
Forecast type: TEMPORARY: The following changes expected for less than half the time period
Winds: from the ENE (60 degrees) at 23 MPH (20 knots; 10.3 m/s)
Visibility: 4 miles (6 km)
Ceiling: 9000 feet AGL
Clouds: few clouds at 3000 feet AGL
scattered clouds at 3200 feet AGL
broken clouds at 9000 feet AGL
Weather: no significant weather forecast for this period
Text: TEMPO 2315/2316 09020G30KT
Forecast period: 1500 to 1600 UTC 23 July 2019
Forecast type: TEMPORARY: The following changes expected for less than half the time period
Winds: from the E (90 degrees) at 23 MPH (20 knots; 10.3 m/s)
gusting to 34 MPH (30 knots; 15.4 m/s)
Visibility: missing
Ceiling: unknown
Clouds: missing
Weather: no significant weather forecast for this period